createdAt,value
2023-02-02T00:00:03.801Z,26.60
2023-02-02T00:02:58.939Z,26.45
2023-02-02T00:05:32.488Z,26.10
2023-02-02T00:08:05.676Z,24.30
2023-02-02T00:10:39.076Z,24.67
2023-02-02T00:13:12.469Z,26.83
2023-02-02T00:15:48.112Z,25.07
2023-02-02T00:18:21.507Z,25.20
2023-02-02T00:20:54.901Z,23.85
2023-02-02T00:23:28.090Z,23.20
2023-02-02T00:26:01.377Z,25.00
2023-02-02T00:28:34.470Z,25.03
2023-02-02T00:31:08.740Z,22.87
2023-02-02T00:33:41.871Z,24.33
2023-02-02T00:36:15.883Z,23.27
2023-02-02T00:38:49.481Z,23.63
2023-02-02T00:41:23.898Z,23.13
2023-02-02T00:44:10.204Z,23.47
2023-02-02T00:46:43.594Z,22.70
2023-02-02T00:49:16.790Z,22.87
2023-02-02T00:51:49.563Z,24.57
2023-02-02T00:54:22.954Z,22.75
2023-02-02T00:56:56.354Z,23.10
2023-02-02T00:59:29.536Z,22.60
2023-02-02T01:02:02.769Z,22.60
2023-02-02T01:04:35.831Z,20.30
2023-02-02T01:07:08.496Z,21.25
2023-02-02T01:12:12.204Z,19.00
2023-02-02T01:14:45.230Z,18.45
2023-02-02T01:17:17.971Z,16.85
2023-02-02T01:19:51.160Z,16.73
2023-02-02T01:22:23.951Z,16.25
2023-02-02T01:24:57.332Z,14.70
2023-02-02T01:27:30.739Z,13.65
2023-02-02T01:30:05.766Z,12.75
2023-02-02T01:32:38.746Z,13.30
2023-02-02T01:35:12.764Z,12.80
2023-02-02T01:37:45.952Z,13.30
2023-02-02T01:40:19.340Z,12.10
2023-02-02T01:42:52.327Z,11.40
2023-02-02T01:45:28.324Z,11.20
2023-02-02T01:48:01.980Z,10.00
2023-02-02T01:50:35.481Z,9.90
2023-02-02T01:53:09.378Z,9.95
2023-02-02T01:55:43.182Z,9.75
2023-02-02T01:58:17.399Z,8.85
2023-02-02T02:00:51.093Z,8.95
2023-02-02T02:03:26.698Z,8.15
2023-02-02T02:06:02.363Z,8.95
2023-02-02T02:08:37.592Z,8.00
2023-02-02T02:11:11.126Z,8.15
2023-02-02T02:14:01.312Z,8.05
2023-02-02T02:16:42.546Z,9.10
2023-02-02T02:19:27.761Z,8.80
2023-02-02T02:22:21.225Z,9.17
2023-02-02T02:25:20.630Z,8.50
2023-02-02T02:28:16.756Z,8.60
2023-02-02T02:31:05.999Z,8.73
2023-02-02T02:33:44.645Z,7.90
2023-02-02T02:36:19.828Z,8.00
2023-02-02T02:38:56.069Z,8.40
2023-02-02T02:41:31.439Z,8.67
2023-02-02T02:44:06.619Z,8.80
2023-02-02T02:46:40.234Z,8.80
2023-02-02T02:49:14.520Z,9.20
2023-02-02T02:51:48.918Z,9.40
2023-02-02T02:54:34.080Z,9.57
2023-02-02T02:57:15.097Z,11.65
2023-02-02T02:59:53.343Z,9.43
2023-02-02T03:02:32.901Z,9.13
2023-02-02T03:05:11.245Z,8.43
2023-02-02T03:07:45.462Z,8.80
2023-02-02T03:10:20.581Z,7.70
2023-02-02T03:12:53.682Z,8.87
2023-02-02T03:15:27.059Z,8.10
2023-02-02T03:18:00.072Z,7.30
2023-02-02T03:20:33.257Z,7.75
2023-02-02T03:23:06.447Z,6.57
2023-02-02T03:25:39.637Z,7.10
2023-02-02T03:28:12.816Z,7.50
2023-02-02T03:30:46.517Z,7.50
2023-02-02T03:33:20.231Z,7.03
2023-02-02T03:35:52.979Z,6.73
2023-02-02T03:38:26.392Z,6.80
2023-02-02T03:40:59.599Z,7.10
2023-02-02T03:43:32.580Z,7.70
2023-02-02T03:46:06.839Z,7.50
2023-02-02T03:48:40.380Z,7.25
2023-02-02T03:51:14.186Z,7.77
2023-02-02T03:53:48.046Z,6.55
2023-02-02T03:56:21.179Z,7.40
2023-02-02T03:58:54.369Z,6.87
2023-02-02T04:01:29.996Z,6.57
2023-02-02T04:04:03.208Z,7.07
2023-02-02T04:06:36.048Z,7.00
2023-02-02T04:09:09.584Z,6.90
2023-02-02T04:11:42.784Z,6.43
2023-02-02T04:14:16.239Z,7.37
2023-02-02T04:16:49.152Z,7.63
2023-02-02T04:19:22.346Z,8.30
2023-02-02T04:21:54.440Z,7.10
2023-02-02T04:24:27.907Z,7.05
2023-02-02T04:27:01.102Z,6.80
2023-02-02T04:29:34.286Z,6.80
2023-02-02T04:32:07.472Z,7.85
2023-02-02T04:34:40.666Z,7.60
2023-02-02T04:37:13.520Z,8.37
2023-02-02T04:39:47.041Z,8.10
2023-02-02T04:42:20.235Z,8.23
2023-02-02T04:44:53.421Z,9.30
2023-02-02T04:47:26.608Z,10.10
2023-02-02T04:49:59.816Z,8.87
2023-02-02T04:52:32.171Z,10.05
2023-02-02T04:57:37.131Z,23.53
2023-02-02T05:00:12.711Z,22.80
2023-02-02T05:02:46.342Z,16.55
2023-02-02T05:05:20.779Z,13.15
2023-02-02T05:07:53.764Z,12.43
2023-02-02T05:10:28.021Z,11.20
2023-02-02T05:13:03.783Z,11.50
2023-02-02T05:15:37.633Z,11.80
2023-02-02T05:18:11.437Z,13.67
2023-02-02T05:20:45.956Z,14.45
2023-02-02T05:23:19.250Z,12.95
2023-02-02T05:25:55.509Z,11.65
2023-02-02T05:28:29.722Z,11.07
2023-02-02T05:31:06.866Z,13.50
2023-02-02T05:33:40.608Z,13.40
2023-02-02T05:36:14.006Z,12.77
2023-02-02T05:38:47.200Z,11.63
2023-02-02T05:41:21.213Z,15.70
2023-02-02T05:43:53.679Z,14.77
2023-02-02T05:46:26.781Z,19.73
2023-02-02T05:49:00.371Z,25.93
2023-02-02T05:51:35.669Z,28.33
2023-02-02T05:54:08.989Z,27.00
2023-02-02T05:56:42.180Z,23.40
2023-02-02T05:59:17.825Z,20.20
2023-02-02T06:01:51.429Z,18.73
2023-02-02T06:04:24.408Z,22.10
2023-02-02T06:06:57.243Z,19.17
2023-02-02T06:09:31.813Z,18.67
2023-02-02T06:12:05.618Z,16.30
2023-02-02T06:14:39.012Z,16.25
2023-02-02T06:17:12.202Z,14.10
2023-02-02T06:19:45.186Z,14.00
2023-02-02T06:22:18.176Z,15.95
2023-02-02T06:24:50.947Z,15.60
2023-02-02T06:27:24.344Z,15.85
2023-02-02T06:29:57.532Z,16.65
2023-02-02T06:32:32.066Z,16.47
2023-02-02T06:35:05.758Z,14.95
2023-02-02T06:37:39.394Z,14.65
2023-02-02T06:40:14.776Z,16.50
2023-02-02T06:42:47.575Z,18.20
2023-02-02T06:45:20.765Z,17.87
2023-02-02T06:47:54.369Z,21.13
2023-02-02T06:50:27.146Z,24.37
2023-02-02T06:52:59.923Z,21.60
2023-02-02T06:55:33.117Z,18.33
2023-02-02T06:58:06.918Z,16.43
2023-02-02T07:00:40.927Z,15.30
2023-02-02T07:03:14.007Z,14.20
2023-02-02T07:05:47.305Z,15.33
2023-02-02T07:08:20.495Z,14.45
2023-02-02T07:11:14.156Z,16.70
2023-02-02T07:13:46.535Z,13.85
2023-02-02T07:16:20.192Z,13.90
2023-02-02T07:18:53.732Z,14.50
2023-02-02T07:21:28.765Z,21.95
2023-02-02T07:24:01.749Z,21.73
2023-02-02T07:26:37.516Z,16.05
2023-02-02T07:29:11.202Z,12.00
2023-02-02T07:31:44.241Z,10.83
2023-02-02T07:34:17.205Z,10.97
2023-02-02T07:36:50.421Z,11.83
2023-02-02T07:39:23.757Z,12.50
2023-02-02T07:41:57.150Z,13.95
2023-02-02T07:44:35.253Z,13.57
2023-02-02T07:47:08.650Z,13.00
2023-02-02T07:49:41.836Z,11.60
2023-02-02T07:52:14.067Z,11.33
2023-02-02T07:54:47.397Z,12.40
2023-02-02T07:57:20.586Z,13.30
2023-02-02T07:59:55.017Z,12.67
2023-02-02T08:02:27.796Z,12.00
2023-02-02T08:05:00.971Z,10.85
2023-02-02T08:07:35.447Z,9.60
2023-02-02T08:10:09.059Z,10.50
2023-02-02T08:12:41.975Z,10.73
2023-02-02T08:15:15.983Z,12.15
2023-02-02T08:17:50.255Z,13.03
2023-02-02T08:20:23.186Z,12.23
2023-02-02T08:22:55.556Z,11.55
2023-02-02T08:28:01.728Z,10.20
2023-02-02T08:30:34.531Z,9.95
2023-02-02T08:33:07.698Z,9.40
2023-02-02T08:35:43.957Z,8.65
2023-02-02T08:38:17.369Z,8.50
2023-02-02T08:40:51.568Z,9.10
2023-02-02T08:43:24.756Z,9.45
2023-02-02T08:46:02.313Z,7.80
2023-02-02T08:48:37.897Z,8.20
2023-02-02T08:51:12.311Z,8.70
2023-02-02T08:53:44.977Z,9.53
2023-02-02T08:56:18.692Z,9.05
2023-02-02T08:58:52.701Z,9.40
2023-02-02T09:01:26.419Z,11.15
2023-02-02T09:04:00.922Z,11.65
2023-02-02T09:06:34.331Z,12.30
2023-02-02T09:09:08.533Z,12.27
2023-02-02T09:11:42.559Z,9.40
2023-02-02T09:14:15.565Z,8.35
2023-02-02T09:16:48.525Z,9.70
2023-02-02T09:19:21.492Z,11.23
2023-02-02T09:21:54.885Z,11.40
2023-02-02T09:24:28.081Z,10.45
2023-02-02T09:27:02.112Z,10.30
2023-02-02T09:29:35.284Z,8.40
2023-02-02T09:32:08.301Z,7.70
2023-02-02T09:34:41.449Z,7.30
2023-02-02T09:37:13.899Z,7.20
2023-02-02T09:39:47.009Z,7.67
2023-02-02T09:42:29.485Z,10.30
2023-02-02T09:45:04.748Z,11.53
2023-02-02T09:47:45.190Z,8.33
2023-02-02T09:50:20.151Z,7.15
2023-02-02T09:52:56.527Z,7.05
2023-02-02T09:55:32.036Z,6.60
2023-02-02T09:58:07.150Z,5.40
2023-02-02T10:00:44.150Z,4.80
2023-02-02T10:03:20.709Z,5.30
2023-02-02T10:05:56.177Z,5.53
2023-02-02T10:08:35.424Z,5.80
2023-02-02T10:11:15.710Z,5.20
2023-02-02T10:13:51.981Z,5.93
2023-02-02T10:16:25.622Z,5.45
2023-02-02T10:19:01.262Z,5.73
2023-02-02T10:21:40.479Z,6.07
2023-02-02T10:24:16.429Z,5.40
2023-02-02T10:26:50.092Z,5.45
2023-02-02T10:29:34.686Z,5.10
2023-02-02T10:32:22.803Z,5.47
2023-02-02T10:35:13.190Z,6.50
2023-02-02T10:37:51.006Z,5.30
2023-02-02T10:40:31.409Z,6.23
2023-02-02T10:43:34.088Z,5.87
2023-02-02T10:48:39.235Z,6.30
2023-02-02T10:51:17.266Z,6.45
2023-02-02T10:53:53.192Z,7.85
2023-02-02T10:56:28.023Z,7.45
2023-02-02T10:59:03.239Z,6.75
2023-02-02T11:01:36.682Z,5.80
2023-02-02T11:04:28.069Z,5.75
2023-02-02T11:07:01.688Z,5.87
2023-02-02T11:09:38.614Z,6.05
2023-02-02T11:12:19.316Z,5.75
2023-02-02T11:14:55.935Z,6.45
2023-02-02T11:17:29.791Z,6.85
2023-02-02T11:20:02.771Z,7.10
2023-02-02T11:22:36.375Z,7.00
2023-02-02T11:25:27.994Z,6.27
2023-02-02T11:28:01.604Z,6.00
2023-02-02T11:30:35.619Z,6.05
2023-02-02T11:33:22.307Z,6.23
2023-02-02T11:35:56.370Z,6.85
2023-02-02T11:38:29.158Z,7.33
2023-02-02T11:41:04.042Z,8.73
2023-02-02T11:43:41.647Z,11.60
2023-02-02T11:46:21.027Z,10.77
2023-02-02T11:48:57.975Z,10.90
2023-02-02T11:51:32.245Z,10.00
2023-02-02T11:54:07.491Z,7.30
2023-02-02T11:56:40.966Z,7.70
2023-02-02T11:59:28.892Z,6.57
2023-02-02T12:02:21.539Z,5.85
2023-02-02T12:04:57.625Z,6.55
2023-02-02T12:07:30.914Z,6.40
2023-02-02T12:10:08.627Z,6.35
2023-02-02T12:12:45.631Z,5.65
2023-02-02T12:15:23.958Z,6.45
2023-02-02T12:18:03.489Z,6.45
2023-02-02T12:20:42.261Z,7.10
2023-02-02T12:23:22.867Z,7.10
2023-02-02T12:26:02.553Z,6.50
2023-02-02T12:28:44.744Z,6.35
2023-02-02T12:31:22.057Z,6.65
2023-02-02T12:33:56.057Z,6.80
2023-02-02T12:36:33.364Z,7.15
2023-02-02T12:39:21.891Z,6.00
2023-02-02T12:42:18.839Z,6.60
2023-02-02T12:45:05.762Z,6.27
2023-02-02T12:47:42.221Z,6.50
2023-02-02T12:50:24.147Z,6.23
2023-02-02T12:53:04.750Z,8.45
2023-02-02T12:55:42.673Z,7.25
2023-02-02T12:58:22.213Z,7.25
2023-02-02T13:01:08.760Z,6.70
2023-02-02T13:03:48.457Z,5.95
2023-02-02T13:06:27.468Z,6.05
2023-02-02T13:09:03.387Z,6.05
2023-02-02T13:11:41.934Z,5.45
2023-02-02T13:14:17.225Z,5.20
2023-02-02T13:16:52.470Z,5.15
2023-02-02T13:19:30.264Z,5.40
2023-02-02T13:22:04.603Z,5.85
2023-02-02T13:24:38.760Z,5.60
2023-02-02T13:27:13.073Z,5.90
2023-02-02T13:29:48.699Z,5.60
2023-02-02T13:32:25.139Z,5.30
2023-02-02T13:35:02.516Z,5.85
2023-02-02T13:37:38.505Z,5.50
2023-02-02T13:40:20.626Z,5.27
2023-02-02T13:42:56.059Z,4.80
2023-02-02T13:45:36.812Z,4.10
2023-02-02T13:48:14.410Z,3.90
2023-02-02T13:50:53.454Z,4.23
2023-02-02T13:53:37.498Z,4.10
2023-02-02T13:56:15.957Z,4.10
2023-02-02T13:59:04.764Z,3.30
2023-02-02T14:01:40.525Z,3.90
2023-02-02T14:04:22.772Z,3.30
2023-02-02T14:06:59.185Z,3.35
2023-02-02T14:09:34.397Z,3.45
2023-02-02T14:12:09.924Z,3.10
2023-02-02T14:14:47.868Z,3.25
2023-02-02T14:17:34.168Z,3.53
2023-02-02T14:20:10.425Z,3.00
2023-02-02T14:22:45.267Z,3.40
2023-02-02T14:25:40.575Z,3.63
2023-02-02T14:28:34.646Z,3.03
2023-02-02T14:31:33.381Z,3.45
2023-02-02T14:34:27.479Z,3.40
2023-02-02T14:37:13.806Z,3.40
2023-02-02T14:39:52.953Z,3.67
2023-02-02T14:42:57.457Z,3.80
2023-02-02T14:45:33.119Z,4.75
2023-02-02T14:48:11.422Z,4.60
2023-02-02T14:50:46.705Z,4.45
2023-02-02T14:53:22.380Z,4.65
2023-02-02T14:55:57.535Z,4.20
2023-02-02T14:58:34.280Z,4.05
2023-02-02T15:01:10.367Z,3.80
2023-02-02T15:03:50.912Z,3.55
2023-02-02T15:06:29.975Z,4.35
2023-02-02T15:09:19.547Z,5.00
2023-02-02T15:12:09.309Z,5.00
2023-02-02T15:14:44.203Z,6.75
2023-02-02T15:17:22.649Z,9.13
2023-02-02T15:19:57.083Z,9.10
2023-02-02T15:22:32.049Z,8.17
2023-02-02T15:25:07.993Z,5.90
2023-02-02T15:27:55.185Z,6.30
2023-02-02T15:30:33.722Z,6.70
2023-02-02T15:33:09.316Z,7.70
2023-02-02T15:35:42.636Z,9.90
2023-02-02T15:38:17.046Z,12.93
2023-02-02T15:40:50.643Z,14.45
2023-02-02T15:43:24.858Z,12.50
2023-02-02T15:46:02.503Z,10.13
2023-02-02T15:48:36.765Z,9.50
2023-02-02T15:51:16.324Z,10.57
2023-02-02T15:53:51.893Z,8.45
2023-02-02T15:56:30.167Z,9.10
2023-02-02T15:59:03.040Z,9.37
2023-02-02T16:01:45.726Z,10.20
2023-02-02T16:04:20.613Z,8.35
2023-02-02T16:06:54.081Z,6.30
2023-02-02T16:09:28.121Z,6.33
2023-02-02T16:12:01.910Z,5.90
2023-02-02T16:14:36.418Z,7.03
2023-02-02T16:17:21.172Z,7.15
2023-02-02T16:19:58.628Z,6.00
2023-02-02T16:22:32.656Z,6.95
2023-02-02T16:25:08.728Z,11.40
2023-02-02T16:27:42.738Z,9.10
2023-02-02T16:30:24.940Z,7.30
2023-02-02T16:32:58.349Z,7.47
2023-02-02T16:35:35.207Z,7.30
2023-02-02T16:38:17.360Z,8.00
2023-02-02T16:40:50.400Z,8.78
2023-02-02T16:43:29.725Z,7.75
2023-02-02T16:46:07.083Z,7.55
2023-02-02T16:48:40.835Z,7.60
2023-02-02T16:51:25.268Z,8.83
2023-02-02T16:54:00.519Z,9.77
2023-02-02T16:56:34.994Z,8.93
2023-02-02T16:59:09.771Z,9.60
2023-02-02T17:01:44.218Z,9.80
2023-02-02T17:04:20.448Z,9.05
2023-02-02T17:06:53.686Z,7.53
2023-02-02T17:09:34.809Z,8.40
2023-02-02T17:12:33.693Z,10.25
2023-02-02T17:15:29.327Z,12.40
2023-02-02T17:18:02.703Z,12.45
2023-02-02T17:20:37.329Z,12.55
2023-02-02T17:23:11.143Z,11.43
2023-02-02T17:25:44.954Z,10.80
2023-02-02T17:28:19.556Z,10.50
2023-02-02T17:30:55.474Z,12.47
2023-02-02T17:33:29.415Z,12.35
2023-02-02T17:36:02.202Z,11.07
2023-02-02T17:38:34.976Z,8.95
2023-02-02T17:41:07.861Z,10.15
2023-02-02T17:43:43.019Z,9.35
2023-02-02T17:46:15.662Z,9.05
2023-02-02T17:48:48.981Z,9.80
2023-02-02T17:51:22.005Z,8.40
2023-02-02T17:53:57.807Z,9.37
2023-02-02T17:56:30.784Z,10.35
2023-02-02T17:59:04.185Z,11.90
2023-02-02T18:01:39.410Z,11.75
2023-02-02T18:04:14.245Z,12.40
2023-02-02T18:06:47.023Z,11.60
2023-02-02T18:09:20.841Z,11.05
2023-02-02T18:11:54.221Z,10.23
2023-02-02T18:14:27.427Z,12.20
2023-02-02T18:17:00.620Z,9.93
2023-02-02T18:19:34.199Z,10.60
2023-02-02T18:22:07.864Z,9.83
2023-02-02T18:24:41.001Z,10.23
2023-02-02T18:27:14.181Z,10.70
2023-02-02T18:29:48.602Z,10.60
2023-02-02T18:32:21.440Z,9.60
2023-02-02T18:34:56.245Z,8.27
2023-02-02T18:37:29.262Z,8.80
2023-02-02T18:40:02.586Z,8.90
2023-02-02T18:42:35.791Z,9.27
2023-02-02T18:45:10.403Z,8.63
2023-02-02T18:47:43.207Z,9.15
2023-02-02T18:50:16.167Z,9.55
2023-02-02T18:52:49.122Z,8.60
2023-02-02T18:55:23.300Z,9.37
2023-02-02T18:57:56.561Z,7.70
2023-02-02T19:00:29.946Z,7.25
2023-02-02T19:03:02.724Z,8.55
2023-02-02T19:05:53.328Z,9.20
2023-02-02T19:08:26.306Z,9.75
2023-02-02T19:11:01.830Z,9.85
2023-02-02T19:13:35.349Z,8.80
2023-02-02T19:16:14.944Z,8.83
2023-02-02T19:18:48.282Z,10.20
2023-02-02T19:21:21.471Z,9.67
2023-02-02T19:23:54.658Z,8.90
2023-02-02T19:26:29.909Z,8.55
2023-02-02T19:29:04.477Z,8.40
2023-02-02T19:31:38.171Z,9.23
2023-02-02T19:34:13.932Z,8.03
2023-02-02T19:36:49.419Z,8.17
2023-02-02T19:39:23.427Z,7.35
2023-02-02T19:41:59.535Z,7.55
2023-02-02T19:44:34.314Z,8.15
2023-02-02T19:47:15.893Z,8.90
2023-02-02T19:49:49.500Z,9.05
2023-02-02T19:52:24.939Z,8.67
2023-02-02T19:54:59.356Z,8.80
2023-02-02T19:57:36.821Z,8.55
2023-02-02T20:00:17.367Z,8.45
2023-02-02T20:03:07.662Z,8.70
2023-02-02T20:05:41.872Z,8.73
2023-02-02T20:08:20.940Z,8.50
2023-02-02T20:10:55.973Z,7.95
2023-02-02T20:13:43.901Z,8.17
2023-02-02T20:16:19.858Z,11.55
2023-02-02T20:18:54.596Z,11.85
2023-02-02T20:21:33.097Z,10.90
2023-02-02T20:24:15.503Z,10.75
2023-02-02T20:26:48.541Z,10.50
2023-02-02T20:29:23.797Z,9.10
2023-02-02T20:31:58.107Z,7.83
2023-02-02T20:34:33.377Z,7.13
2023-02-02T20:37:14.350Z,6.05
2023-02-02T20:39:50.231Z,5.83
2023-02-02T20:42:23.803Z,5.60
2023-02-02T20:44:59.246Z,4.80
2023-02-02T20:47:33.465Z,5.60
2023-02-02T20:50:08.261Z,5.60
2023-02-02T20:52:43.357Z,5.55
2023-02-02T20:55:18.909Z,5.33
2023-02-02T20:57:52.793Z,6.00
2023-02-02T21:00:27.908Z,7.20
2023-02-02T21:03:01.204Z,7.40
2023-02-02T21:05:34.185Z,6.53
2023-02-02T21:08:07.179Z,6.35
2023-02-02T21:10:40.153Z,5.40
2023-02-02T21:13:13.343Z,5.55
2023-02-02T21:15:46.531Z,5.47
2023-02-02T21:18:19.511Z,5.40
2023-02-02T21:20:52.945Z,5.90
2023-02-02T21:23:25.897Z,6.30
2023-02-02T21:25:59.287Z,5.20
2023-02-02T21:28:32.477Z,5.35
2023-02-02T21:31:07.828Z,5.15
2023-02-02T21:33:42.444Z,5.97
2023-02-02T21:36:26.504Z,5.73
2023-02-02T21:39:03.325Z,6.43
2023-02-02T21:41:37.471Z,6.05
2023-02-02T21:44:13.828Z,6.45
2023-02-02T21:46:47.139Z,5.90
2023-02-02T21:49:22.265Z,6.60
2023-02-02T21:51:57.157Z,6.75
2023-02-02T21:54:31.205Z,7.30
2023-02-02T21:57:06.430Z,6.25
2023-02-02T21:59:39.441Z,6.63
2023-02-02T22:02:32.911Z,6.60
2023-02-02T22:05:12.400Z,5.60
2023-02-02T22:07:46.404Z,5.83
2023-02-02T22:10:31.505Z,6.30
2023-02-02T22:13:12.888Z,6.25
2023-02-02T22:15:47.756Z,6.80
2023-02-02T22:18:23.059Z,6.85
2023-02-02T22:20:56.872Z,6.60
2023-02-02T22:23:30.147Z,6.50
2023-02-02T22:26:03.342Z,7.35
2023-02-02T22:28:40.021Z,7.20
2023-02-02T22:31:13.076Z,6.65
2023-02-02T22:33:46.184Z,6.70
2023-02-02T22:36:19.377Z,8.00
2023-02-02T22:38:51.947Z,7.37
2023-02-02T22:41:24.994Z,8.97
2023-02-02T22:43:57.713Z,7.70
2023-02-02T22:46:30.376Z,7.50
2023-02-02T22:49:03.890Z,7.45
2023-02-02T22:51:37.079Z,7.00
2023-02-02T22:54:11.093Z,7.60
2023-02-02T22:56:44.478Z,7.07
2023-02-02T22:59:17.669Z,8.15
2023-02-02T23:01:50.861Z,7.93
2023-02-02T23:04:24.251Z,8.17
2023-02-02T23:06:57.645Z,8.50
2023-02-02T23:09:31.043Z,8.10
2023-02-02T23:12:04.229Z,7.53
2023-02-02T23:14:37.839Z,8.10
2023-02-02T23:17:11.019Z,8.45
2023-02-02T23:19:44.410Z,7.80
2023-02-02T23:22:17.815Z,8.35
2023-02-02T23:24:51.201Z,8.05
2023-02-02T23:27:24.401Z,8.93
2023-02-02T23:29:57.578Z,7.60
2023-02-02T23:32:30.770Z,7.30
2023-02-02T23:35:03.957Z,8.10
2023-02-02T23:37:37.211Z,7.15
2023-02-02T23:40:12.255Z,7.97
2023-02-02T23:42:45.587Z,8.17
2023-02-02T23:45:18.923Z,7.80
2023-02-02T23:47:52.160Z,8.07
2023-02-02T23:50:25.606Z,7.57
2023-02-02T23:52:59.357Z,6.90
2023-02-02T23:55:32.548Z,8.00
2023-02-02T23:58:06.146Z,7.87
